sensor_id;sensor_type;location;lat;lon;timestamp;temperature;humidity
16781;DHT22;8507;50.056;8.248;2022-10-31T00:00:59;12.70;99.90
16781;DHT22;8507;50.056;8.248;2022-10-31T00:03:25;12.70;99.90
16781;DHT22;8507;50.056;8.248;2022-10-31T00:05:51;12.70;99.90
16781;DHT22;8507;50.056;8.248;2022-10-31T00:08:17;12.70;99.90
16781;DHT22;8507;50.056;8.248;2022-10-31T00:10:44;12.60;99.90
16781;DHT22;8507;50.056;8.248;2022-10-31T00:13:11;12.50;99.90
16781;DHT22;8507;50.056;8.248;2022-10-31T00:15:38;12.60;99.90
16781;DHT22;8507;50.056;8.248;2022-10-31T00:18:05;12.60;99.90
16781;DHT22;8507;50.056;8.248;2022-10-31T00:20:31;12.60;99.90
16781;DHT22;8507;50.056;8.248;2022-10-31T00:22:58;12.60;99.90
16781;DHT22;8507;50.056;8.248;2022-10-31T00:25:24;12.60;99.90
16781;DHT22;8507;50.056;8.248;2022-10-31T00:27:50;12.60;99.90
16781;DHT22;8507;50.056;8.248;2022-10-31T00:30:15;12.60;99.90
16781;DHT22;8507;50.056;8.248;2022-10-31T00:32:41;12.70;99.90
16781;DHT22;8507;50.056;8.248;2022-10-31T00:35:07;12.70;99.90
16781;DHT22;8507;50.056;8.248;2022-10-31T00:37:32;12.70;99.90
16781;DHT22;8507;50.056;8.248;2022-10-31T00:39:58;12.70;99.90
16781;DHT22;8507;50.056;8.248;2022-10-31T00:42:23;12.60;99.90
16781;DHT22;8507;50.056;8.248;2022-10-31T00:44:49;12.50;99.90
16781;DHT22;8507;50.056;8.248;2022-10-31T00:47:14;12.50;99.90
16781;DHT22;8507;50.056;8.248;2022-10-31T00:49:40;12.50;99.90
16781;DHT22;8507;50.056;8.248;2022-10-31T00:52:05;12.60;99.90
16781;DHT22;8507;50.056;8.248;2022-10-31T00:54:31;12.60;99.90
16781;DHT22;8507;50.056;8.248;2022-10-31T00:56:57;12.60;99.90
16781;DHT22;8507;50.056;8.248;2022-10-31T00:59:22;12.60;99.90
16781;DHT22;8507;50.056;8.248;2022-10-31T01:01:48;12.60;99.90
16781;DHT22;8507;50.056;8.248;2022-10-31T01:04:13;12.60;99.90
16781;DHT22;8507;50.056;8.248;2022-10-31T01:06:39;12.60;99.90
16781;DHT22;8507;50.056;8.248;2022-10-31T01:09:05;12.60;99.90
16781;DHT22;8507;50.056;8.248;2022-10-31T01:11:30;12.70;99.90
16781;DHT22;8507;50.056;8.248;2022-10-31T01:13:56;12.60;99.90
16781;DHT22;8507;50.056;8.248;2022-10-31T01:16:24;12.60;99.90
16781;DHT22;8507;50.056;8.248;2022-10-31T01:18:50;12.70;99.90
16781;DHT22;8507;50.056;8.248;2022-10-31T01:21:24;12.70;99.90
16781;DHT22;8507;50.056;8.248;2022-10-31T01:23:52;12.50;99.90
16781;DHT22;8507;50.056;8.248;2022-10-31T01:26:24;12.30;99.90
16781;DHT22;8507;50.056;8.248;2022-10-31T01:28:52;12.10;99.90
16781;DHT22;8507;50.056;8.248;2022-10-31T01:31:24;12.00;99.90
16781;DHT22;8507;50.056;8.248;2022-10-31T01:33:50;12.00;99.90
16781;DHT22;8507;50.056;8.248;2022-10-31T01:36:25;12.20;99.90
16781;DHT22;8507;50.056;8.248;2022-10-31T01:38:52;12.30;99.90
16781;DHT22;8507;50.056;8.248;2022-10-31T01:41:21;12.30;99.90
16781;DHT22;8507;50.056;8.248;2022-10-31T01:46:22;12.30;99.90
16781;DHT22;8507;50.056;8.248;2022-10-31T01:48:50;12.30;99.90
16781;DHT22;8507;50.056;8.248;2022-10-31T01:51:17;12.20;99.90
16781;DHT22;8507;50.056;8.248;2022-10-31T01:53:44;12.30;99.90
16781;DHT22;8507;50.056;8.248;2022-10-31T01:56:11;12.30;99.90
16781;DHT22;8507;50.056;8.248;2022-10-31T01:58:37;12.40;99.90
16781;DHT22;8507;50.056;8.248;2022-10-31T02:01:03;12.40;99.90
16781;DHT22;8507;50.056;8.248;2022-10-31T02:03:29;12.40;99.90
16781;DHT22;8507;50.056;8.248;2022-10-31T02:05:57;12.50;99.90
16781;DHT22;8507;50.056;8.248;2022-10-31T02:08:30;12.40;99.90
16781;DHT22;8507;50.056;8.248;2022-10-31T02:10:58;12.40;99.90
16781;DHT22;8507;50.056;8.248;2022-10-31T02:13:25;12.50;99.90
16781;DHT22;8507;50.056;8.248;2022-10-31T02:15:57;12.50;99.90
16781;DHT22;8507;50.056;8.248;2022-10-31T02:18:25;12.50;99.90
16781;DHT22;8507;50.056;8.248;2022-10-31T02:21:22;12.40;99.90
16781;DHT22;8507;50.056;8.248;2022-10-31T02:32:27;11.80;99.90
16781;DHT22;8507;50.056;8.248;2022-10-31T02:40:08;12.00;99.90
16781;DHT22;8507;50.056;8.248;2022-10-31T02:48:27;12.10;99.90
16781;DHT22;8507;50.056;8.248;2022-10-31T02:50:56;12.10;99.90
16781;DHT22;8507;50.056;8.248;2022-10-31T02:53:23;12.00;99.90
16781;DHT22;8507;50.056;8.248;2022-10-31T02:56:01;11.90;99.90
16781;DHT22;8507;50.056;8.248;2022-10-31T02:58:32;11.80;99.90
16781;DHT22;8507;50.056;8.248;2022-10-31T03:01:19;11.70;99.90
16781;DHT22;8507;50.056;8.248;2022-10-31T03:06:41;11.90;99.90
16781;DHT22;8507;50.056;8.248;2022-10-31T03:14:45;12.10;99.90
16781;DHT22;8507;50.056;8.248;2022-10-31T03:17:20;12.10;99.90
16781;DHT22;8507;50.056;8.248;2022-10-31T03:19:49;12.10;99.90
16781;DHT22;8507;50.056;8.248;2022-10-31T03:22:21;12.10;99.90
16781;DHT22;8507;50.056;8.248;2022-10-31T03:24:48;12.10;99.90
16781;DHT22;8507;50.056;8.248;2022-10-31T03:27:22;12.10;99.90
16781;DHT22;8507;50.056;8.248;2022-10-31T03:29:50;12.10;99.90
16781;DHT22;8507;50.056;8.248;2022-10-31T03:32:21;12.00;99.90
16781;DHT22;8507;50.056;8.248;2022-10-31T03:34:49;11.90;99.90
16781;DHT22;8507;50.056;8.248;2022-10-31T03:37:18;12.00;99.90
16781;DHT22;8507;50.056;8.248;2022-10-31T03:39:46;12.00;99.90
16781;DHT22;8507;50.056;8.248;2022-10-31T03:42:33;11.80;99.90
16781;DHT22;8507;50.056;8.248;2022-10-31T03:47:28;11.40;99.90
16781;DHT22;8507;50.056;8.248;2022-10-31T03:49:54;11.20;99.90
16781;DHT22;8507;50.056;8.248;2022-10-31T03:52:43;11.20;99.90
16781;DHT22;8507;50.056;8.248;2022-10-31T03:55:22;11.30;99.90
16781;DHT22;8507;50.056;8.248;2022-10-31T03:57:51;11.40;99.90
16781;DHT22;8507;50.056;8.248;2022-10-31T04:00:18;11.30;99.90
16781;DHT22;8507;50.056;8.248;2022-10-31T04:03:01;11.40;99.90
16781;DHT22;8507;50.056;8.248;2022-10-31T04:05:29;11.50;99.90
16781;DHT22;8507;50.056;8.248;2022-10-31T04:07:58;11.50;99.90
16781;DHT22;8507;50.056;8.248;2022-10-31T04:10:26;11.60;99.90
16781;DHT22;8507;50.056;8.248;2022-10-31T04:12:57;11.70;99.90
16781;DHT22;8507;50.056;8.248;2022-10-31T04:15:25;11.70;99.90
16781;DHT22;8507;50.056;8.248;2022-10-31T04:17:53;11.80;99.90
16781;DHT22;8507;50.056;8.248;2022-10-31T04:20:31;11.90;99.90
16781;DHT22;8507;50.056;8.248;2022-10-31T04:22:57;11.90;99.90
16781;DHT22;8507;50.056;8.248;2022-10-31T04:25:22;11.90;99.90
16781;DHT22;8507;50.056;8.248;2022-10-31T04:27:48;11.90;99.90
16781;DHT22;8507;50.056;8.248;2022-10-31T04:30:13;11.90;99.90
16781;DHT22;8507;50.056;8.248;2022-10-31T04:32:39;11.90;99.90
16781;DHT22;8507;50.056;8.248;2022-10-31T04:35:05;11.90;99.90
16781;DHT22;8507;50.056;8.248;2022-10-31T04:37:31;11.80;99.90
16781;DHT22;8507;50.056;8.248;2022-10-31T04:39:56;11.80;99.90
16781;DHT22;8507;50.056;8.248;2022-10-31T04:42:22;11.80;99.90
16781;DHT22;8507;50.056;8.248;2022-10-31T04:44:47;11.80;99.90
16781;DHT22;8507;50.056;8.248;2022-10-31T04:47:13;11.80;99.90
16781;DHT22;8507;50.056;8.248;2022-10-31T04:49:38;11.70;99.90
16781;DHT22;8507;50.056;8.248;2022-10-31T04:52:04;11.80;99.90
16781;DHT22;8507;50.056;8.248;2022-10-31T04:54:29;11.90;99.90
16781;DHT22;8507;50.056;8.248;2022-10-31T04:56:55;12.00;99.90
16781;DHT22;8507;50.056;8.248;2022-10-31T04:59:20;12.00;99.90
16781;DHT22;8507;50.056;8.248;2022-10-31T05:01:46;12.00;99.90
16781;DHT22;8507;50.056;8.248;2022-10-31T05:04:11;12.00;99.90
16781;DHT22;8507;50.056;8.248;2022-10-31T05:06:37;12.00;99.90
16781;DHT22;8507;50.056;8.248;2022-10-31T05:09:02;12.00;99.90
16781;DHT22;8507;50.056;8.248;2022-10-31T05:11:28;12.00;99.90
16781;DHT22;8507;50.056;8.248;2022-10-31T05:13:53;12.00;99.90
16781;DHT22;8507;50.056;8.248;2022-10-31T05:16:19;12.00;99.90
16781;DHT22;8507;50.056;8.248;2022-10-31T05:18:44;11.90;99.90
16781;DHT22;8507;50.056;8.248;2022-10-31T05:21:10;11.90;99.90
16781;DHT22;8507;50.056;8.248;2022-10-31T05:23:36;11.80;99.90
16781;DHT22;8507;50.056;8.248;2022-10-31T05:26:01;11.60;99.90
16781;DHT22;8507;50.056;8.248;2022-10-31T05:28:27;11.50;99.90
16781;DHT22;8507;50.056;8.248;2022-10-31T05:30:52;11.50;99.90
16781;DHT22;8507;50.056;8.248;2022-10-31T05:33:18;11.60;99.90
16781;DHT22;8507;50.056;8.248;2022-10-31T05:35:43;11.60;99.90
16781;DHT22;8507;50.056;8.248;2022-10-31T05:38:09;11.50;99.90
16781;DHT22;8507;50.056;8.248;2022-10-31T05:40:34;11.50;99.90
16781;DHT22;8507;50.056;8.248;2022-10-31T05:43:00;11.50;99.90
16781;DHT22;8507;50.056;8.248;2022-10-31T05:45:25;11.60;99.90
16781;DHT22;8507;50.056;8.248;2022-10-31T05:47:52;11.70;99.90
16781;DHT22;8507;50.056;8.248;2022-10-31T05:50:18;11.60;99.90
16781;DHT22;8507;50.056;8.248;2022-10-31T05:52:44;11.60;99.90
16781;DHT22;8507;50.056;8.248;2022-10-31T05:55:10;11.70;99.90
16781;DHT22;8507;50.056;8.248;2022-10-31T05:57:35;11.70;99.90
16781;DHT22;8507;50.056;8.248;2022-10-31T06:00:01;11.70;99.90
16781;DHT22;8507;50.056;8.248;2022-10-31T06:02:26;11.80;99.90
16781;DHT22;8507;50.056;8.248;2022-10-31T06:04:52;11.80;99.90
16781;DHT22;8507;50.056;8.248;2022-10-31T06:07:18;11.80;99.90
16781;DHT22;8507;50.056;8.248;2022-10-31T06:09:43;11.80;99.90
16781;DHT22;8507;50.056;8.248;2022-10-31T06:12:09;11.80;99.90
16781;DHT22;8507;50.056;8.248;2022-10-31T06:14:34;11.80;99.90
16781;DHT22;8507;50.056;8.248;2022-10-31T06:17:00;11.70;99.90
16781;DHT22;8507;50.056;8.248;2022-10-31T06:19:25;11.70;99.90
16781;DHT22;8507;50.056;8.248;2022-10-31T06:21:51;11.80;99.90
16781;DHT22;8507;50.056;8.248;2022-10-31T06:24:16;11.90;99.90
16781;DHT22;8507;50.056;8.248;2022-10-31T06:26:42;11.90;99.90
16781;DHT22;8507;50.056;8.248;2022-10-31T06:29:07;12.10;99.90
16781;DHT22;8507;50.056;8.248;2022-10-31T06:31:33;12.10;99.90
16781;DHT22;8507;50.056;8.248;2022-10-31T06:33:59;12.20;99.90
16781;DHT22;8507;50.056;8.248;2022-10-31T06:36:24;12.10;99.90
16781;DHT22;8507;50.056;8.248;2022-10-31T06:38:50;12.30;99.90
16781;DHT22;8507;50.056;8.248;2022-10-31T06:41:15;12.40;99.90
16781;DHT22;8507;50.056;8.248;2022-10-31T06:43:41;12.40;99.90
16781;DHT22;8507;50.056;8.248;2022-10-31T06:46:06;12.40;99.90
16781;DHT22;8507;50.056;8.248;2022-10-31T06:48:32;12.30;99.90
16781;DHT22;8507;50.056;8.248;2022-10-31T06:51:01;12.30;99.90
16781;DHT22;8507;50.056;8.248;2022-10-31T06:53:27;12.30;99.90
16781;DHT22;8507;50.056;8.248;2022-10-31T06:55:55;12.60;99.90
16781;DHT22;8507;50.056;8.248;2022-10-31T06:58:21;12.90;99.90
16781;DHT22;8507;50.056;8.248;2022-10-31T07:00:47;13.00;99.90
16781;DHT22;8507;50.056;8.248;2022-10-31T07:03:14;13.20;99.90
16781;DHT22;8507;50.056;8.248;2022-10-31T07:05:41;13.30;99.90
16781;DHT22;8507;50.056;8.248;2022-10-31T07:08:09;13.40;99.90
16781;DHT22;8507;50.056;8.248;2022-10-31T07:10:36;13.40;99.90
16781;DHT22;8507;50.056;8.248;2022-10-31T07:13:05;13.50;99.90
16781;DHT22;8507;50.056;8.248;2022-10-31T07:15:35;13.60;99.90
16781;DHT22;8507;50.056;8.248;2022-10-31T07:18:02;13.70;99.90
16781;DHT22;8507;50.056;8.248;2022-10-31T07:20:28;13.80;99.90
16781;DHT22;8507;50.056;8.248;2022-10-31T07:22:54;13.90;99.90
16781;DHT22;8507;50.056;8.248;2022-10-31T07:25:20;14.00;99.90
16781;DHT22;8507;50.056;8.248;2022-10-31T07:27:46;14.10;99.90
16781;DHT22;8507;50.056;8.248;2022-10-31T07:30:12;14.20;99.90
16781;DHT22;8507;50.056;8.248;2022-10-31T07:32:46;14.30;99.90
16781;DHT22;8507;50.056;8.248;2022-10-31T07:35:24;14.40;99.90
16781;DHT22;8507;50.056;8.248;2022-10-31T07:37:49;14.50;99.90
16781;DHT22;8507;50.056;8.248;2022-10-31T07:40:16;14.70;99.90
16781;DHT22;8507;50.056;8.248;2022-10-31T07:42:44;14.80;99.90
16781;DHT22;8507;50.056;8.248;2022-10-31T07:45:12;14.90;99.90
16781;DHT22;8507;50.056;8.248;2022-10-31T07:47:42;15.00;99.90
16781;DHT22;8507;50.056;8.248;2022-10-31T07:50:09;14.90;99.90
16781;DHT22;8507;50.056;8.248;2022-10-31T07:52:35;15.10;99.90
16781;DHT22;8507;50.056;8.248;2022-10-31T07:55:01;15.30;99.90
16781;DHT22;8507;50.056;8.248;2022-10-31T07:57:28;15.40;99.90
16781;DHT22;8507;50.056;8.248;2022-10-31T07:59:53;15.50;99.90
16781;DHT22;8507;50.056;8.248;2022-10-31T08:02:19;15.40;99.90
16781;DHT22;8507;50.056;8.248;2022-10-31T08:04:44;15.30;99.90
16781;DHT22;8507;50.056;8.248;2022-10-31T08:07:10;15.40;99.90
16781;DHT22;8507;50.056;8.248;2022-10-31T08:09:35;15.40;99.90
16781;DHT22;8507;50.056;8.248;2022-10-31T08:12:01;15.50;99.90
16781;DHT22;8507;50.056;8.248;2022-10-31T08:14:27;15.60;99.90
16781;DHT22;8507;50.056;8.248;2022-10-31T08:16:53;15.70;99.90
16781;DHT22;8507;50.056;8.248;2022-10-31T08:19:19;15.60;99.90
16781;DHT22;8507;50.056;8.248;2022-10-31T08:21:45;15.60;99.90
16781;DHT22;8507;50.056;8.248;2022-10-31T08:24:10;15.60;99.90
16781;DHT22;8507;50.056;8.248;2022-10-31T08:26:36;15.80;99.90
16781;DHT22;8507;50.056;8.248;2022-10-31T08:29:02;15.80;99.90
16781;DHT22;8507;50.056;8.248;2022-10-31T08:31:28;15.80;99.90
16781;DHT22;8507;50.056;8.248;2022-10-31T08:33:53;15.80;99.90
16781;DHT22;8507;50.056;8.248;2022-10-31T08:36:20;15.80;99.90
16781;DHT22;8507;50.056;8.248;2022-10-31T08:38:47;15.80;99.90
16781;DHT22;8507;50.056;8.248;2022-10-31T08:41:12;15.80;99.90
16781;DHT22;8507;50.056;8.248;2022-10-31T08:43:38;15.80;99.90
16781;DHT22;8507;50.056;8.248;2022-10-31T08:46:03;15.80;99.90
16781;DHT22;8507;50.056;8.248;2022-10-31T08:48:29;15.90;99.90
16781;DHT22;8507;50.056;8.248;2022-10-31T08:50:56;16.10;99.90
16781;DHT22;8507;50.056;8.248;2022-10-31T08:53:23;16.20;99.90
16781;DHT22;8507;50.056;8.248;2022-10-31T08:55:49;16.30;99.90
16781;DHT22;8507;50.056;8.248;2022-10-31T08:58:17;16.40;99.90
16781;DHT22;8507;50.056;8.248;2022-10-31T09:00:44;16.40;99.90
16781;DHT22;8507;50.056;8.248;2022-10-31T09:03:12;16.40;99.90
16781;DHT22;8507;50.056;8.248;2022-10-31T09:05:38;16.50;99.90
16781;DHT22;8507;50.056;8.248;2022-10-31T09:08:05;16.60;99.90
16781;DHT22;8507;50.056;8.248;2022-10-31T09:10:32;16.60;99.90
16781;DHT22;8507;50.056;8.248;2022-10-31T09:13:02;16.60;99.90
16781;DHT22;8507;50.056;8.248;2022-10-31T09:15:32;16.60;99.90
16781;DHT22;8507;50.056;8.248;2022-10-31T09:17:58;16.40;99.90
16781;DHT22;8507;50.056;8.248;2022-10-31T09:20:24;16.40;99.90
16781;DHT22;8507;50.056;8.248;2022-10-31T09:22:56;16.40;99.90
16781;DHT22;8507;50.056;8.248;2022-10-31T09:25:22;16.40;99.90
16781;DHT22;8507;50.056;8.248;2022-10-31T09:27:47;16.50;99.90
16781;DHT22;8507;50.056;8.248;2022-10-31T09:30:13;16.50;99.90
16781;DHT22;8507;50.056;8.248;2022-10-31T09:32:38;16.50;99.90
16781;DHT22;8507;50.056;8.248;2022-10-31T09:35:04;16.60;99.90
16781;DHT22;8507;50.056;8.248;2022-10-31T09:37:30;16.70;99.90
16781;DHT22;8507;50.056;8.248;2022-10-31T09:39:56;16.70;99.90
16781;DHT22;8507;50.056;8.248;2022-10-31T09:42:27;16.70;99.90
16781;DHT22;8507;50.056;8.248;2022-10-31T09:53:05;17.00;99.90
16781;DHT22;8507;50.056;8.248;2022-10-31T09:55:40;17.10;99.90
16781;DHT22;8507;50.056;8.248;2022-10-31T09:58:13;17.20;99.90
16781;DHT22;8507;50.056;8.248;2022-10-31T10:00:39;17.30;99.90
16781;DHT22;8507;50.056;8.248;2022-10-31T10:03:07;17.10;99.90
16781;DHT22;8507;50.056;8.248;2022-10-31T10:05:46;17.00;99.90
16781;DHT22;8507;50.056;8.248;2022-10-31T10:08:18;17.20;99.90
16781;DHT22;8507;50.056;8.248;2022-10-31T10:24:52;17.60;99.90
16781;DHT22;8507;50.056;8.248;2022-10-31T10:27:29;17.70;99.90
16781;DHT22;8507;50.056;8.248;2022-10-31T10:30:11;17.80;99.90
16781;DHT22;8507;50.056;8.248;2022-10-31T10:32:58;17.90;99.90
16781;DHT22;8507;50.056;8.248;2022-10-31T10:35:40;18.00;99.90
16781;DHT22;8507;50.056;8.248;2022-10-31T10:40:52;18.20;99.90
16781;DHT22;8507;50.056;8.248;2022-10-31T10:43:23;18.30;99.90
16781;DHT22;8507;50.056;8.248;2022-10-31T10:51:31;18.50;99.90
16781;DHT22;8507;50.056;8.248;2022-10-31T10:54:17;18.60;99.90
16781;DHT22;8507;50.056;8.248;2022-10-31T10:59:46;18.80;99.90
16781;DHT22;8507;50.056;8.248;2022-10-31T11:02:27;19.00;99.90
16781;DHT22;8507;50.056;8.248;2022-10-31T11:04:58;19.10;99.90
16781;DHT22;8507;50.056;8.248;2022-10-31T11:07:24;19.20;99.90
16781;DHT22;8507;50.056;8.248;2022-10-31T11:09:50;19.10;99.90
16781;DHT22;8507;50.056;8.248;2022-10-31T11:12:31;18.70;99.90
16781;DHT22;8507;50.056;8.248;2022-10-31T11:15:02;18.40;99.90
16781;DHT22;8507;50.056;8.248;2022-10-31T11:20:04;19.00;99.90
16781;DHT22;8507;50.056;8.248;2022-10-31T11:22:30;19.20;99.90
16781;DHT22;8507;50.056;8.248;2022-10-31T11:24:56;19.30;99.90
16781;DHT22;8507;50.056;8.248;2022-10-31T11:27:24;19.40;99.90
16781;DHT22;8507;50.056;8.248;2022-10-31T11:29:50;19.40;99.90
16781;DHT22;8507;50.056;8.248;2022-10-31T11:32:23;19.40;99.90
16781;DHT22;8507;50.056;8.248;2022-10-31T11:34:56;19.10;99.90
16781;DHT22;8507;50.056;8.248;2022-10-31T11:37:26;19.10;99.90
16781;DHT22;8507;50.056;8.248;2022-10-31T11:39:54;19.00;99.90
16781;DHT22;8507;50.056;8.248;2022-10-31T11:42:23;19.20;99.90
16781;DHT22;8507;50.056;8.248;2022-10-31T11:44:51;19.30;99.90
16781;DHT22;8507;50.056;8.248;2022-10-31T11:47:31;19.50;99.90
16781;DHT22;8507;50.056;8.248;2022-10-31T11:50:02;19.50;99.90
16781;DHT22;8507;50.056;8.248;2022-10-31T11:52:34;19.60;99.90
16781;DHT22;8507;50.056;8.248;2022-10-31T11:57:49;19.80;99.90
16781;DHT22;8507;50.056;8.248;2022-10-31T12:00:21;19.90;99.90
16781;DHT22;8507;50.056;8.248;2022-10-31T12:02:47;20.00;99.90
16781;DHT22;8507;50.056;8.248;2022-10-31T12:05:23;20.10;99.90
16781;DHT22;8507;50.056;8.248;2022-10-31T12:07:50;20.10;99.90
16781;DHT22;8507;50.056;8.248;2022-10-31T12:10:20;19.90;99.90
16781;DHT22;8507;50.056;8.248;2022-10-31T12:13:08;19.90;99.90
16781;DHT22;8507;50.056;8.248;2022-10-31T12:15:38;19.90;99.90
16781;DHT22;8507;50.056;8.248;2022-10-31T12:24:15;18.80;99.90
16781;DHT22;8507;50.056;8.248;2022-10-31T12:32:29;19.20;99.90
16781;DHT22;8507;50.056;8.248;2022-10-31T12:43:53;19.70;99.90
16781;DHT22;8507;50.056;8.248;2022-10-31T12:46:34;20.00;99.90
16781;DHT22;8507;50.056;8.248;2022-10-31T12:54:35;20.50;99.90
16781;DHT22;8507;50.056;8.248;2022-10-31T13:00:31;19.70;99.90
16781;DHT22;8507;50.056;8.248;2022-10-31T13:02:54;19.90;99.90
16781;DHT22;8507;50.056;8.248;2022-10-31T13:05:31;20.10;99.90
16781;DHT22;8507;50.056;8.248;2022-10-31T13:08:05;20.10;99.90
16781;DHT22;8507;50.056;8.248;2022-10-31T13:10:35;20.10;99.90
16781;DHT22;8507;50.056;8.248;2022-10-31T13:13:23;20.00;99.90
16781;DHT22;8507;50.056;8.248;2022-10-31T13:15:59;19.90;99.90
16781;DHT22;8507;50.056;8.248;2022-10-31T13:18:37;19.80;99.90
16781;DHT22;8507;50.056;8.248;2022-10-31T13:21:10;19.80;99.90
16781;DHT22;8507;50.056;8.248;2022-10-31T13:23:39;19.70;99.90
16781;DHT22;8507;50.056;8.248;2022-10-31T13:29:27;19.70;99.90
16781;DHT22;8507;50.056;8.248;2022-10-31T13:31:54;19.30;99.90
16781;DHT22;8507;50.056;8.248;2022-10-31T13:37:06;19.00;99.90
16781;DHT22;8507;50.056;8.248;2022-10-31T13:42:25;19.30;99.90
16781;DHT22;8507;50.056;8.248;2022-10-31T13:45:14;19.30;99.90
16781;DHT22;8507;50.056;8.248;2022-10-31T13:47:41;19.30;99.90
16781;DHT22;8507;50.056;8.248;2022-10-31T13:50:25;19.30;99.90
16781;DHT22;8507;50.056;8.248;2022-10-31T13:52:51;19.20;99.90
16781;DHT22;8507;50.056;8.248;2022-10-31T13:55:37;19.10;99.90
16781;DHT22;8507;50.056;8.248;2022-10-31T13:58:05;18.80;99.90
16781;DHT22;8507;50.056;8.248;2022-10-31T14:00:44;18.80;99.90
16781;DHT22;8507;50.056;8.248;2022-10-31T14:03:18;18.90;99.90
16781;DHT22;8507;50.056;8.248;2022-10-31T14:05:52;18.90;99.90
16781;DHT22;8507;50.056;8.248;2022-10-31T14:08:21;18.90;99.90
16781;DHT22;8507;50.056;8.248;2022-10-31T14:10:50;18.90;99.90
16781;DHT22;8507;50.056;8.248;2022-10-31T14:13:19;18.90;99.90
16781;DHT22;8507;50.056;8.248;2022-10-31T14:15:56;18.90;99.90
16781;DHT22;8507;50.056;8.248;2022-10-31T14:18:29;19.00;99.90
16781;DHT22;8507;50.056;8.248;2022-10-31T14:20:55;19.00;99.90
16781;DHT22;8507;50.056;8.248;2022-10-31T14:28:44;19.30;99.90
16781;DHT22;8507;50.056;8.248;2022-10-31T14:31:30;19.50;99.90
16781;DHT22;8507;50.056;8.248;2022-10-31T14:34:35;19.70;99.90
16781;DHT22;8507;50.056;8.248;2022-10-31T14:51:01;19.90;99.90
16781;DHT22;8507;50.056;8.248;2022-10-31T14:53:37;19.80;99.90
16781;DHT22;8507;50.056;8.248;2022-10-31T14:56:09;19.60;99.90
16781;DHT22;8507;50.056;8.248;2022-10-31T14:58:39;19.50;99.90
16781;DHT22;8507;50.056;8.248;2022-10-31T15:01:06;19.40;99.90
16781;DHT22;8507;50.056;8.248;2022-10-31T15:03:39;19.20;99.90
16781;DHT22;8507;50.056;8.248;2022-10-31T15:06:12;18.90;99.90
16781;DHT22;8507;50.056;8.248;2022-10-31T15:08:49;18.70;99.90
16781;DHT22;8507;50.056;8.248;2022-10-31T15:11:26;18.60;99.90
16781;DHT22;8507;50.056;8.248;2022-10-31T15:13:56;18.40;99.90
16781;DHT22;8507;50.056;8.248;2022-10-31T15:16:30;18.30;99.90
16781;DHT22;8507;50.056;8.248;2022-10-31T15:19:08;18.10;99.90
16781;DHT22;8507;50.056;8.248;2022-10-31T15:21:39;18.10;99.90
16781;DHT22;8507;50.056;8.248;2022-10-31T15:24:05;18.10;99.90
16781;DHT22;8507;50.056;8.248;2022-10-31T15:26:35;17.90;99.90
16781;DHT22;8507;50.056;8.248;2022-10-31T15:29:05;17.90;99.90
16781;DHT22;8507;50.056;8.248;2022-10-31T15:31:31;17.90;99.90
16781;DHT22;8507;50.056;8.248;2022-10-31T15:34:04;17.60;99.90
16781;DHT22;8507;50.056;8.248;2022-10-31T15:36:30;17.50;99.90
16781;DHT22;8507;50.056;8.248;2022-10-31T15:38:56;17.50;99.90
16781;DHT22;8507;50.056;8.248;2022-10-31T15:41:32;17.40;99.90
16781;DHT22;8507;50.056;8.248;2022-10-31T15:44:20;17.30;99.90
16781;DHT22;8507;50.056;8.248;2022-10-31T15:46:58;17.10;99.90
16781;DHT22;8507;50.056;8.248;2022-10-31T15:49:40;17.00;99.90
16781;DHT22;8507;50.056;8.248;2022-10-31T15:52:19;16.80;99.90
16781;DHT22;8507;50.056;8.248;2022-10-31T15:54:53;16.90;99.90
16781;DHT22;8507;50.056;8.248;2022-10-31T15:57:21;16.90;99.90
16781;DHT22;8507;50.056;8.248;2022-10-31T15:59:48;16.80;99.90
16781;DHT22;8507;50.056;8.248;2022-10-31T16:02:22;16.90;99.90
16781;DHT22;8507;50.056;8.248;2022-10-31T16:04:59;17.00;99.90
16781;DHT22;8507;50.056;8.248;2022-10-31T16:07:28;16.80;99.90
16781;DHT22;8507;50.056;8.248;2022-10-31T16:10:03;16.70;99.90
16781;DHT22;8507;50.056;8.248;2022-10-31T16:12:33;16.70;99.90
16781;DHT22;8507;50.056;8.248;2022-10-31T16:14:59;16.60;99.90
16781;DHT22;8507;50.056;8.248;2022-10-31T16:17:27;16.60;99.90
16781;DHT22;8507;50.056;8.248;2022-10-31T16:20:02;16.70;99.90
16781;DHT22;8507;50.056;8.248;2022-10-31T16:22:35;16.70;99.90
16781;DHT22;8507;50.056;8.248;2022-10-31T16:25:15;16.70;99.90
16781;DHT22;8507;50.056;8.248;2022-10-31T16:27:48;16.70;99.90
16781;DHT22;8507;50.056;8.248;2022-10-31T16:30:38;16.70;99.90
16781;DHT22;8507;50.056;8.248;2022-10-31T16:33:20;16.60;99.90
16781;DHT22;8507;50.056;8.248;2022-10-31T16:35:47;16.60;99.90
16781;DHT22;8507;50.056;8.248;2022-10-31T16:38:13;16.60;99.90
16781;DHT22;8507;50.056;8.248;2022-10-31T16:40:39;16.60;99.90
16781;DHT22;8507;50.056;8.248;2022-10-31T16:43:04;16.60;99.90
16781;DHT22;8507;50.056;8.248;2022-10-31T16:45:32;16.60;99.90
16781;DHT22;8507;50.056;8.248;2022-10-31T16:48:11;16.50;99.90
16781;DHT22;8507;50.056;8.248;2022-10-31T16:50:40;16.50;99.90
16781;DHT22;8507;50.056;8.248;2022-10-31T16:53:06;16.40;99.90
16781;DHT22;8507;50.056;8.248;2022-10-31T16:55:32;16.40;99.90
16781;DHT22;8507;50.056;8.248;2022-10-31T16:58:00;16.40;99.90
16781;DHT22;8507;50.056;8.248;2022-10-31T17:00:27;16.40;99.90
16781;DHT22;8507;50.056;8.248;2022-10-31T17:02:55;16.40;99.90
16781;DHT22;8507;50.056;8.248;2022-10-31T17:05:25;16.30;99.90
16781;DHT22;8507;50.056;8.248;2022-10-31T17:07:58;16.30;99.90
16781;DHT22;8507;50.056;8.248;2022-10-31T17:10:24;16.30;99.90
16781;DHT22;8507;50.056;8.248;2022-10-31T17:12:50;16.30;99.90
16781;DHT22;8507;50.056;8.248;2022-10-31T17:15:27;16.30;99.90
16781;DHT22;8507;50.056;8.248;2022-10-31T17:17:54;16.30;99.90
16781;DHT22;8507;50.056;8.248;2022-10-31T17:20:25;16.30;99.90
16781;DHT22;8507;50.056;8.248;2022-10-31T17:22:51;16.20;99.90
16781;DHT22;8507;50.056;8.248;2022-10-31T17:25:20;16.10;99.90
16781;DHT22;8507;50.056;8.248;2022-10-31T17:27:47;16.10;99.90
16781;DHT22;8507;50.056;8.248;2022-10-31T17:30:13;16.10;99.90
16781;DHT22;8507;50.056;8.248;2022-10-31T17:32:40;16.00;99.90
16781;DHT22;8507;50.056;8.248;2022-10-31T17:35:07;15.90;99.90
16781;DHT22;8507;50.056;8.248;2022-10-31T17:37:33;15.90;99.90
16781;DHT22;8507;50.056;8.248;2022-10-31T17:39:59;15.80;99.90
16781;DHT22;8507;50.056;8.248;2022-10-31T17:42:24;15.80;99.90
16781;DHT22;8507;50.056;8.248;2022-10-31T17:44:50;15.80;99.90
16781;DHT22;8507;50.056;8.248;2022-10-31T17:47:15;15.60;99.90
16781;DHT22;8507;50.056;8.248;2022-10-31T17:49:41;15.60;99.90
16781;DHT22;8507;50.056;8.248;2022-10-31T17:52:06;15.60;99.90
16781;DHT22;8507;50.056;8.248;2022-10-31T17:54:32;15.50;99.90
16781;DHT22;8507;50.056;8.248;2022-10-31T17:56:57;15.50;99.90
16781;DHT22;8507;50.056;8.248;2022-10-31T17:59:23;15.40;99.90
16781;DHT22;8507;50.056;8.248;2022-10-31T18:01:49;15.40;99.90
16781;DHT22;8507;50.056;8.248;2022-10-31T18:04:14;15.40;99.90
16781;DHT22;8507;50.056;8.248;2022-10-31T18:06:40;15.20;99.90